createdAt,value
2023-02-25T00:02:53.916Z,26.40
2023-02-25T00:38:55.269Z,26.42
2023-02-25T01:09:56.470Z,26.38
2023-02-25T01:10:56.507Z,26.38
2023-02-25T01:11:56.543Z,26.38
2023-02-25T01:12:56.585Z,26.38
2023-02-25T01:13:56.650Z,26.40
2023-02-25T01:14:56.647Z,26.39
2023-02-25T01:15:56.719Z,26.38
2023-02-25T01:16:56.739Z,26.40
2023-02-25T01:17:56.820Z,26.38
2023-02-25T01:18:56.827Z,26.39
2023-02-25T01:19:56.882Z,26.38
2023-02-25T01:20:56.907Z,26.39
2023-02-25T01:21:56.949Z,26.38
2023-02-25T01:22:56.981Z,26.38
2023-02-25T01:23:57.013Z,26.36
2023-02-25T01:24:57.068Z,26.38
2023-02-25T01:25:57.070Z,26.38
2023-02-25T01:26:57.147Z,26.36
2023-02-25T01:27:57.157Z,26.38
2023-02-25T01:28:57.247Z,26.39
2023-02-25T01:29:57.252Z,26.38
2023-02-25T01:30:57.321Z,26.38
2023-02-25T01:31:57.503Z,26.36
2023-02-25T01:32:57.417Z,26.39
2023-02-25T01:33:57.375Z,26.36
2023-02-25T01:34:57.451Z,26.38
2023-02-25T01:35:57.425Z,26.38
2023-02-25T01:36:57.516Z,26.39
2023-02-25T01:37:57.539Z,26.39
2023-02-25T01:38:57.553Z,26.39
2023-02-25T01:39:57.583Z,26.40
2023-02-25T01:40:57.649Z,26.38
2023-02-25T01:41:57.688Z,26.38
2023-02-25T01:42:57.681Z,26.39
2023-02-25T01:43:57.723Z,26.40
2023-02-25T01:44:57.766Z,26.39
2023-02-25T01:45:57.808Z,26.40
2023-02-25T01:46:57.887Z,26.38
2023-02-25T01:47:57.884Z,26.38
2023-02-25T01:48:57.897Z,26.38
2023-02-25T01:49:57.931Z,26.36
2023-02-25T01:50:57.986Z,26.39
2023-02-25T01:51:58.012Z,26.38
2023-02-25T01:52:58.049Z,26.39
2023-02-25T01:53:58.090Z,26.39
2023-02-25T01:54:58.093Z,26.39
2023-02-25T01:55:58.157Z,26.38
2023-02-25T01:56:58.212Z,26.38
2023-02-25T01:57:58.218Z,26.40
2023-02-25T01:58:58.265Z,26.35
2023-02-25T01:59:58.308Z,26.38
2023-02-25T02:00:58.397Z,26.39
2023-02-25T02:01:58.350Z,26.38
2023-02-25T02:02:58.387Z,26.39
2023-02-25T02:03:58.416Z,26.39
2023-02-25T02:04:58.490Z,26.39
2023-02-25T02:05:58.508Z,26.36
2023-02-25T02:06:58.557Z,26.38
2023-02-25T02:07:58.607Z,26.38
2023-02-25T02:08:58.634Z,26.38
2023-02-25T02:09:58.757Z,26.38
2023-02-25T02:10:58.726Z,26.36
2023-02-25T02:11:58.753Z,26.38
2023-02-25T02:12:58.812Z,26.39
2023-02-25T02:13:58.834Z,26.38
2023-02-25T02:14:58.900Z,26.39
2023-02-25T02:15:59.020Z,26.40
2023-02-25T02:16:58.962Z,26.38
2023-02-25T02:17:59.013Z,26.36
2023-02-25T02:18:59.047Z,26.38
2023-02-25T02:19:59.086Z,26.38
2023-02-25T02:20:59.112Z,26.39
2023-02-25T02:21:59.204Z,26.38
2023-02-25T02:22:59.206Z,26.38
2023-02-25T02:23:59.244Z,26.38
2023-02-25T02:24:59.312Z,26.36
2023-02-25T02:25:59.323Z,26.38
2023-02-25T02:26:59.398Z,26.39
2023-02-25T02:27:59.397Z,26.39
2023-02-25T02:28:59.426Z,26.36
2023-02-25T02:29:59.513Z,26.35
2023-02-25T02:30:59.555Z,26.39
2023-02-25T02:31:59.668Z,26.38
2023-02-25T02:32:59.645Z,26.38
2023-02-25T02:33:59.664Z,26.36
2023-02-25T02:34:59.700Z,26.38
2023-02-25T02:35:59.736Z,26.38
2023-02-25T02:36:59.756Z,26.38
2023-02-25T02:37:59.817Z,26.36
2023-02-25T02:38:59.867Z,26.38
2023-02-25T02:39:59.904Z,26.38
2023-02-25T02:41:00.928Z,26.38
2023-02-25T02:41:59.971Z,26.36
2023-02-25T02:42:59.993Z,26.38
2023-02-25T02:44:00.036Z,26.36
2023-02-25T02:45:00.117Z,26.34
2023-02-25T02:46:00.243Z,26.38
2023-02-25T02:47:00.156Z,26.36
2023-02-25T02:48:00.219Z,26.36
2023-02-25T02:49:00.225Z,26.36
2023-02-25T02:50:00.307Z,26.36
2023-02-25T02:51:00.286Z,26.38
2023-02-25T02:52:00.349Z,26.38
2023-02-25T02:53:00.379Z,26.36
2023-02-25T02:54:00.413Z,26.36
2023-02-25T02:55:00.440Z,26.36
2023-02-25T02:56:00.511Z,26.36
2023-02-25T02:57:00.517Z,26.36
2023-02-25T02:58:00.584Z,26.38
2023-02-25T02:59:00.661Z,26.35
2023-02-25T03:00:00.634Z,26.39
2023-02-25T03:01:00.663Z,26.36
2023-02-25T03:02:00.756Z,26.39
2023-02-25T03:03:00.778Z,26.36
2023-02-25T03:04:00.868Z,26.35
2023-02-25T03:05:00.822Z,26.36
2023-02-25T03:06:00.880Z,26.38
2023-02-25T03:07:00.887Z,26.38
2023-02-25T03:08:00.942Z,26.36
2023-02-25T03:09:01.003Z,26.38
2023-02-25T03:10:00.996Z,26.36
2023-02-25T03:11:01.062Z,26.38
2023-02-25T03:12:01.101Z,26.35
2023-02-25T03:13:01.118Z,26.38
2023-02-25T03:14:01.166Z,26.38
2023-02-25T03:15:01.192Z,26.38
2023-02-25T03:16:01.244Z,26.39
2023-02-25T03:17:01.273Z,26.36
2023-02-25T03:18:01.287Z,26.39
2023-02-25T03:19:01.344Z,26.38
2023-02-25T03:20:01.383Z,26.39
2023-02-25T03:21:01.366Z,26.39
2023-02-25T03:22:01.425Z,26.39
2023-02-25T03:23:01.465Z,26.38
2023-02-25T03:24:01.510Z,26.38
2023-02-25T03:25:01.539Z,26.36
2023-02-25T03:26:01.600Z,26.40
2023-02-25T03:27:01.645Z,26.39
2023-02-25T03:28:01.677Z,26.39
2023-02-25T03:29:01.695Z,26.36
2023-02-25T03:30:01.760Z,26.36
2023-02-25T03:31:01.901Z,26.36
2023-02-25T03:32:01.973Z,26.36
2023-02-25T03:33:01.864Z,26.38
2023-02-25T03:34:01.944Z,26.35
2023-02-25T03:35:01.987Z,26.36
2023-02-25T03:36:01.986Z,26.36
2023-02-25T03:37:02.018Z,26.36
2023-02-25T03:38:02.102Z,26.36
2023-02-25T03:39:02.135Z,26.35
2023-02-25T03:40:02.135Z,26.35
2023-02-25T03:41:02.197Z,26.36
2023-02-25T03:42:02.292Z,26.36
2023-02-25T03:43:02.215Z,26.34
2023-02-25T03:44:02.279Z,26.35
2023-02-25T03:45:02.301Z,26.35
2023-02-25T03:46:02.397Z,26.35
2023-02-25T03:47:02.374Z,26.35
2023-02-25T03:48:02.442Z,26.35
2023-02-25T03:49:02.437Z,26.34
2023-02-25T03:50:02.482Z,26.36
2023-02-25T03:51:02.528Z,26.35
2023-02-25T03:52:02.597Z,26.35
2023-02-25T03:53:02.589Z,26.31
2023-02-25T03:54:02.634Z,26.32
2023-02-25T03:55:02.652Z,26.35
2023-02-25T03:56:02.710Z,26.34
2023-02-25T03:57:02.739Z,26.34
2023-02-25T03:58:02.790Z,26.32
2023-02-25T03:59:02.820Z,26.32
2023-02-25T04:00:02.878Z,26.32
2023-02-25T04:01:02.901Z,26.32
2023-02-25T04:02:03.010Z,26.31
2023-02-25T04:03:03.005Z,26.28
2023-02-25T04:04:03.049Z,26.29
2023-02-25T04:05:03.084Z,26.32
2023-02-25T04:06:03.108Z,26.31
2023-02-25T04:07:03.157Z,26.31
2023-02-25T04:08:03.170Z,26.31
2023-02-25T04:09:03.230Z,26.29
2023-02-25T04:10:03.300Z,26.31
2023-02-25T04:11:03.313Z,26.29
2023-02-25T04:12:03.389Z,26.29
2023-02-25T04:13:03.434Z,26.31
2023-02-25T04:14:03.461Z,26.29
2023-02-25T04:15:03.513Z,26.31
2023-02-25T04:16:03.638Z,26.29
2023-02-25T04:17:03.632Z,26.29
2023-02-25T04:18:03.667Z,26.28
2023-02-25T04:19:03.732Z,26.32
2023-02-25T04:20:03.764Z,26.28
2023-02-25T04:21:03.853Z,26.29
2023-02-25T04:22:03.880Z,26.28
2023-02-25T04:23:03.951Z,26.29
2023-02-25T04:24:03.961Z,26.31
2023-02-25T04:25:04.033Z,26.28
2023-02-25T04:26:04.050Z,26.31
2023-02-25T04:27:04.102Z,26.29
2023-02-25T04:28:04.154Z,26.29
2023-02-25T04:29:04.198Z,26.26
2023-02-25T04:30:04.241Z,26.31
2023-02-25T04:31:04.471Z,26.28
2023-02-25T04:32:04.439Z,26.29
2023-02-25T04:33:04.389Z,26.28
2023-02-25T04:34:04.424Z,26.26
2023-02-25T04:35:04.487Z,26.29
2023-02-25T04:36:04.504Z,26.28
2023-02-25T04:37:04.552Z,26.28
2023-02-25T04:38:04.612Z,26.26
2023-02-25T04:39:04.644Z,26.26
2023-02-25T04:40:04.744Z,26.26
2023-02-25T05:16:06.519Z,26.22
2023-02-25T05:17:06.538Z,26.24
2023-02-25T05:18:06.629Z,26.21
2023-02-25T05:19:06.652Z,26.21
2023-02-25T05:20:06.745Z,26.24
2023-02-25T05:21:06.766Z,26.21
2023-02-25T05:22:06.891Z,26.22
2023-02-25T05:23:06.889Z,26.19
2023-02-25T05:24:06.917Z,26.18
2023-02-25T05:25:06.990Z,26.22
2023-02-25T05:26:07.062Z,26.21
2023-02-25T05:27:07.069Z,26.22
2023-02-25T05:28:07.537Z,26.21
2023-02-25T05:29:07.192Z,26.21
2023-02-25T05:30:07.385Z,26.21
2023-02-25T05:31:07.367Z,26.21
2023-02-25T05:32:07.548Z,26.22
2023-02-25T05:33:07.490Z,26.19
2023-02-25T05:34:07.427Z,26.19
2023-02-25T05:35:07.468Z,26.21
2023-02-25T05:36:07.533Z,26.22
2023-02-25T05:37:07.573Z,26.21
2023-02-25T05:38:07.627Z,26.19
2023-02-25T05:39:07.703Z,26.21
2023-02-25T05:40:07.740Z,26.19
2023-02-25T05:41:07.787Z,26.22
2023-02-25T05:42:07.845Z,26.24
2023-02-25T05:43:07.913Z,26.22
2023-02-25T05:44:07.988Z,26.21
2023-02-25T05:45:07.978Z,26.22
2023-02-25T05:46:08.056Z,26.22
2023-02-25T05:47:08.181Z,26.22
2023-02-25T05:48:08.174Z,26.22
2023-02-25T05:49:08.216Z,26.19
2023-02-25T05:50:08.267Z,26.19
2023-02-25T05:51:08.322Z,26.21
2023-02-25T05:52:08.428Z,26.21
2023-02-25T05:53:08.414Z,26.19
2023-02-25T05:54:08.472Z,26.19
2023-02-25T05:55:08.528Z,26.22
2023-02-25T05:56:08.569Z,26.21
2023-02-25T05:57:08.571Z,26.21
2023-02-25T05:58:08.643Z,26.22
2023-02-25T05:59:08.705Z,26.19
2023-02-25T06:00:08.771Z,26.19
2023-02-25T06:01:08.802Z,26.19
2023-02-25T06:02:08.946Z,26.19
2023-02-25T06:03:08.951Z,26.19
2023-02-25T06:04:08.996Z,26.18
2023-02-25T06:05:09.006Z,26.19
2023-02-25T06:06:09.049Z,26.18
2023-02-25T06:07:09.132Z,26.18
2023-02-25T06:08:09.159Z,26.21
2023-02-25T06:09:09.241Z,26.19
2023-02-25T06:10:09.297Z,26.21
2023-02-25T06:11:09.353Z,26.21
2023-02-25T06:12:09.361Z,26.18
2023-02-25T06:13:09.416Z,26.19
2023-02-25T06:14:09.488Z,26.19
2023-02-25T06:15:09.527Z,26.19
2023-02-25T06:16:09.594Z,26.19
2023-02-25T06:17:09.642Z,26.21
2023-02-25T06:18:09.715Z,26.18
2023-02-25T06:19:09.735Z,26.21
2023-02-25T06:20:09.822Z,26.19
2023-02-25T06:21:09.841Z,26.21
2023-02-25T06:22:09.887Z,26.18
2023-02-25T06:23:09.943Z,26.21
2023-02-25T06:24:09.987Z,26.19
2023-02-25T06:25:10.057Z,26.19
2023-02-25T06:26:10.065Z,26.21
2023-02-25T06:27:10.178Z,26.21
2023-02-25T06:28:10.198Z,26.19
2023-02-25T06:29:10.261Z,26.21
2023-02-25T06:30:10.340Z,26.21
2023-02-25T06:31:10.462Z,26.19
2023-02-25T07:14:12.802Z,26.19
2023-02-25T07:16:13.073Z,26.19
2023-02-25T07:17:12.986Z,26.16
2023-02-25T07:18:13.078Z,26.16
2023-02-25T07:19:13.096Z,26.15
2023-02-25T07:20:13.134Z,26.16
2023-02-25T07:21:13.249Z,26.18
2023-02-25T07:22:13.306Z,26.19
2023-02-25T07:23:13.368Z,26.19
2023-02-25T07:24:13.408Z,26.19
2023-02-25T07:25:13.585Z,26.16
2023-02-25T07:26:13.506Z,26.18
2023-02-25T07:27:13.594Z,26.19
2023-02-25T07:28:13.656Z,26.19
2023-02-25T07:29:13.711Z,26.19
2023-02-25T07:30:13.741Z,26.18
2023-02-25T07:31:13.981Z,26.19
2023-02-25T07:32:14.006Z,26.18
2023-02-25T07:33:13.973Z,26.19
2023-02-25T07:34:13.982Z,26.21
2023-02-25T07:35:14.055Z,26.21
2023-02-25T07:36:14.099Z,26.19
2023-02-25T07:37:14.180Z,26.19
2023-02-25T07:38:14.206Z,26.18
2023-02-25T07:39:14.292Z,26.19
2023-02-25T07:40:14.324Z,26.19
2023-02-25T07:41:14.402Z,26.18
2023-02-25T07:42:14.455Z,26.18
2023-02-25T07:43:14.510Z,26.18
2023-02-25T07:44:14.555Z,26.21
2023-02-25T07:45:14.607Z,26.19
2023-02-25T07:46:14.740Z,26.19
2023-02-25T07:47:14.749Z,26.19
2023-02-25T07:48:14.800Z,26.19
2023-02-25T07:49:14.846Z,26.21
2023-02-25T07:50:14.902Z,26.18
2023-02-25T07:51:14.975Z,26.18
2023-02-25T07:52:15.039Z,26.16
2023-02-25T07:53:15.084Z,26.18
2023-02-25T07:54:15.117Z,26.18
2023-02-25T07:55:15.183Z,26.19
2023-02-25T07:56:15.256Z,26.16
2023-02-25T07:57:15.313Z,26.19
2023-02-25T08:21:16.489Z,26.18
2023-02-25T08:22:16.551Z,26.19
2023-02-25T08:23:16.637Z,26.19
2023-02-25T08:24:16.684Z,26.19
2023-02-25T08:25:16.742Z,26.19
2023-02-25T08:26:16.819Z,26.19
2023-02-25T08:27:16.881Z,26.22
2023-02-25T08:28:16.942Z,26.19
2023-02-25T08:29:17.015Z,26.22
2023-02-25T08:30:17.061Z,26.21
2023-02-25T08:31:17.246Z,26.24
2023-02-25T08:32:17.362Z,26.21
2023-02-25T08:33:17.250Z,26.22
2023-02-25T08:34:17.337Z,26.22
2023-02-25T08:35:17.357Z,26.21
2023-02-25T08:36:17.405Z,26.22
2023-02-25T08:37:17.476Z,26.24
2023-02-25T08:38:17.524Z,26.21
2023-02-25T08:39:17.569Z,26.24
2023-02-25T08:40:19.865Z,26.25
2023-02-25T08:44:17.868Z,26.25
2023-02-25T08:45:17.899Z,26.22
2023-02-25T08:46:20.032Z,26.22
2023-02-25T08:47:17.918Z,26.21
2023-02-25T08:48:17.910Z,26.22
2023-02-25T08:49:17.977Z,26.24
2023-02-25T08:50:17.917Z,26.22
2023-02-25T08:51:17.916Z,26.22
2023-02-25T08:52:17.871Z,26.22
2023-02-25T08:53:17.877Z,26.21
2023-02-25T08:54:17.857Z,26.24
2023-02-25T08:55:17.849Z,26.24
2023-02-25T08:56:17.892Z,26.22
2023-02-25T08:57:17.849Z,26.25
2023-02-25T08:59:17.830Z,26.24
2023-02-25T09:00:17.821Z,26.24
2023-02-25T09:01:17.881Z,26.25
2023-02-25T09:02:17.815Z,26.24
2023-02-25T09:03:17.830Z,26.26
2023-02-25T09:04:17.847Z,26.24
2023-02-25T09:05:20.575Z,26.26
2023-02-25T09:06:18.567Z,26.26
2023-02-25T09:07:17.767Z,26.25
2023-02-25T09:08:17.815Z,26.25
2023-02-25T09:09:17.833Z,26.29
2023-02-25T09:10:17.776Z,26.26
2023-02-25T09:11:17.772Z,26.28
2023-02-25T09:57:18.366Z,26.40
2023-02-25T09:58:18.406Z,26.45
2023-02-25T09:59:18.445Z,26.43
2023-02-25T10:00:18.538Z,26.43
2023-02-25T10:01:18.525Z,26.42
2023-02-25T10:02:18.648Z,26.42
2023-02-25T10:03:18.864Z,26.42
2023-02-25T10:04:18.638Z,26.45
2023-02-25T10:05:18.668Z,26.46
2023-02-25T10:06:18.750Z,26.43
2023-02-25T10:07:18.786Z,26.45
2023-02-25T10:08:18.831Z,26.45
2023-02-25T10:09:18.836Z,26.45
2023-02-25T10:10:18.883Z,26.43
2023-02-25T10:11:18.947Z,26.42
2023-02-25T10:12:20.312Z,26.43
2023-02-25T10:13:19.018Z,26.42
2023-02-25T10:14:19.057Z,26.42
2023-02-25T10:15:19.128Z,26.42
2023-02-25T10:16:19.201Z,26.40
2023-02-25T10:17:19.218Z,26.40
2023-02-25T10:18:19.267Z,26.42
2023-02-25T10:19:19.281Z,26.40
2023-02-25T10:20:19.371Z,26.43
2023-02-25T10:21:19.413Z,26.42
2023-02-25T10:22:19.440Z,26.45
2023-02-25T10:23:19.497Z,26.46
2023-02-25T10:24:19.537Z,26.46
2023-02-25T10:25:19.579Z,26.43
2023-02-25T10:27:19.689Z,26.42
2023-02-25T10:28:19.715Z,26.42
2023-02-25T10:29:19.752Z,26.43
2023-02-25T10:30:19.788Z,26.45
2023-02-25T10:31:20.010Z,26.45
2023-02-25T10:47:20.437Z,26.45
2023-02-25T10:48:20.499Z,26.48
2023-02-25T10:49:20.530Z,26.46
2023-02-25T10:50:20.570Z,26.49
2023-02-25T10:51:20.593Z,26.46
2023-02-25T10:53:22.547Z,26.48
2023-02-25T10:54:20.715Z,26.48
2023-02-25T10:55:20.685Z,26.45
2023-02-25T10:56:20.669Z,26.45
2023-02-25T10:57:20.700Z,26.45
2023-02-25T10:58:20.687Z,26.45
2023-02-25T10:59:20.648Z,26.46
2023-02-25T11:00:20.660Z,26.45
2023-02-25T11:01:20.798Z,26.43
2023-02-25T11:02:20.723Z,26.45
2023-02-25T11:03:20.649Z,26.45
2023-02-25T11:04:20.655Z,26.46
2023-02-25T11:05:20.603Z,26.43
2023-02-25T11:06:23.052Z,26.45
2023-02-25T11:07:20.793Z,26.43
2023-02-25T11:08:20.806Z,26.45
2023-02-25T11:09:20.840Z,26.42
2023-02-25T11:10:20.878Z,26.43
2023-02-25T11:11:20.872Z,26.42
2023-02-25T11:12:20.949Z,26.45
2023-02-25T11:13:21.023Z,26.45
2023-02-25T11:14:21.112Z,26.45
2023-02-25T11:15:21.389Z,26.46
2023-02-25T11:16:21.151Z,26.43
2023-02-25T11:17:21.205Z,26.45
2023-02-25T11:18:21.190Z,26.43
2023-02-25T11:19:21.820Z,26.43
2023-02-25T11:20:21.240Z,26.43
2023-02-25T11:21:21.580Z,26.43
2023-02-25T11:22:21.291Z,26.43
2023-02-25T11:23:21.277Z,26.42
2023-02-25T11:24:21.318Z,26.45
2023-02-25T11:25:21.352Z,26.42
2023-02-25T11:26:21.347Z,26.40
2023-02-25T11:27:21.388Z,26.42
2023-02-25T11:28:21.423Z,26.43
2023-02-25T11:29:21.482Z,26.40
2023-02-25T11:30:21.544Z,26.39
2023-02-25T11:31:21.893Z,26.40
2023-02-25T11:32:21.764Z,26.38
2023-02-25T11:33:21.705Z,26.39
2023-02-25T11:34:21.751Z,26.38
2023-02-25T11:35:21.797Z,26.38
2023-02-25T11:36:22.357Z,26.39
2023-02-25T11:37:21.919Z,26.39
2023-02-25T11:38:21.972Z,26.39
2023-02-25T11:39:21.996Z,26.38
2023-02-25T11:40:22.052Z,26.39
2023-02-25T11:41:22.574Z,26.38
2023-02-25T11:42:22.134Z,26.38
2023-02-25T11:44:22.278Z,26.36
2023-02-25T11:45:22.317Z,26.36
2023-02-25T11:46:22.723Z,26.40
2023-02-25T11:47:22.486Z,26.38
2023-02-25T11:48:22.466Z,26.38
2023-02-25T11:49:22.525Z,26.39
2023-02-25T11:50:22.585Z,26.40
2023-02-25T11:51:22.666Z,26.38
2023-02-25T11:52:22.682Z,26.38
2023-02-25T11:53:22.754Z,26.39
2023-02-25T11:54:22.824Z,26.36
2023-02-25T11:55:22.859Z,26.39
2023-02-25T11:56:23.254Z,26.39
2023-02-25T11:57:22.987Z,26.36
2023-02-25T11:58:23.043Z,26.36
2023-02-25T11:59:23.036Z,26.39
2023-02-25T12:00:23.114Z,26.36
2023-02-25T12:01:23.137Z,26.35
2023-02-25T12:02:23.183Z,26.35
2023-02-25T12:03:23.303Z,26.36
2023-02-25T12:04:23.320Z,26.36
2023-02-25T12:05:23.404Z,26.34
2023-02-25T12:06:23.767Z,26.34
2023-02-25T12:07:23.503Z,26.34
2023-02-25T12:08:23.544Z,26.35
2023-02-25T12:10:23.668Z,26.31
2023-02-25T12:11:24.367Z,26.32
2023-02-25T12:12:23.816Z,26.34
2023-02-25T12:13:23.903Z,26.35
2023-02-25T12:14:23.929Z,26.32
2023-02-25T12:15:24.016Z,26.31
2023-02-25T12:16:24.412Z,26.32
2023-02-25T12:17:24.070Z,26.29
2023-02-25T12:18:24.166Z,26.31
2023-02-25T12:19:24.217Z,26.26
2023-02-25T12:20:24.268Z,26.32
2023-02-25T12:21:24.646Z,26.31
2023-02-25T12:22:24.363Z,26.29
2023-02-25T12:23:24.355Z,26.31
2023-02-25T12:24:24.405Z,26.31
2023-02-25T12:25:24.425Z,26.31
2023-02-25T12:26:24.443Z,26.29
2023-02-25T12:27:24.506Z,26.28
2023-02-25T12:28:24.560Z,26.28
2023-02-25T12:29:24.599Z,26.28
2023-02-25T12:30:24.636Z,26.28
2023-02-25T12:31:25.065Z,26.29
2023-02-25T12:32:24.864Z,26.26
2023-02-25T12:33:24.840Z,26.28
2023-02-25T12:34:24.888Z,26.31
2023-02-25T13:00:26.495Z,26.28
2023-02-25T13:01:26.760Z,26.28
2023-02-25T13:02:26.611Z,26.28
2023-02-25T13:03:26.679Z,26.29
2023-02-25T13:04:26.726Z,26.25
2023-02-25T13:05:26.803Z,26.26
2023-02-25T13:06:26.870Z,26.25
2023-02-25T13:07:26.931Z,26.24
2023-02-25T13:08:26.973Z,26.26
2023-02-25T13:09:27.061Z,26.26
2023-02-25T13:10:27.092Z,26.25
2023-02-25T13:11:27.102Z,26.25
2023-02-25T13:12:27.168Z,26.26
2023-02-25T13:13:27.205Z,26.25
2023-02-25T13:14:27.311Z,26.25
2023-02-25T13:15:27.333Z,26.22
2023-02-25T13:16:27.424Z,26.26
2023-02-25T13:17:27.455Z,26.24
2023-02-25T13:18:27.535Z,26.22
2023-02-25T13:19:27.605Z,26.24
2023-02-25T13:20:27.652Z,26.26
2023-02-25T13:21:27.688Z,26.28
2023-02-25T13:22:27.771Z,26.25
2023-02-25T13:23:27.833Z,26.21
2023-02-25T13:24:27.892Z,26.22
2023-02-25T13:25:27.955Z,26.21
2023-02-25T13:26:27.994Z,26.22
2023-02-25T13:27:28.076Z,26.24
2023-02-25T13:28:28.117Z,26.22
2023-02-25T13:29:28.145Z,26.22
2023-02-25T13:30:28.237Z,26.19
2023-02-25T13:31:28.280Z,26.21
2023-02-25T13:32:28.440Z,26.21
2023-02-25T13:33:28.399Z,26.19
2023-02-25T13:34:28.497Z,26.19
2023-02-25T13:35:28.529Z,26.19
2023-02-25T13:36:28.616Z,26.18
2023-02-25T13:37:28.654Z,26.18
2023-02-25T13:38:28.728Z,26.18
2023-02-25T13:39:28.754Z,26.16
2023-02-25T13:41:29.703Z,26.16
2023-02-25T13:42:28.929Z,26.18
2023-02-25T13:43:28.964Z,26.16
2023-02-25T13:44:28.993Z,26.18
2023-02-25T13:45:29.058Z,26.18
2023-02-25T13:46:29.115Z,26.18
2023-02-25T13:47:29.147Z,26.16
2023-02-25T13:48:29.231Z,26.15
2023-02-25T13:49:29.271Z,26.14
2023-02-25T15:54:32.564Z,25.91
2023-02-25T15:55:32.570Z,25.91
2023-02-25T15:56:32.610Z,25.91
2023-02-25T16:03:32.878Z,25.91
2023-02-25T16:04:34.228Z,25.92
2023-02-25T16:05:32.874Z,25.89
2023-02-25T16:06:32.906Z,25.91
2023-02-25T16:07:32.852Z,25.91
2023-02-25T16:08:32.859Z,25.89
2023-02-25T16:09:32.899Z,25.89
2023-02-25T16:10:32.840Z,25.89
2023-02-25T16:11:34.557Z,25.91
2023-02-25T16:12:32.836Z,25.89
2023-02-25T16:13:32.882Z,25.91
2023-02-25T16:14:32.829Z,25.91
2023-02-25T16:15:32.842Z,25.92
2023-02-25T16:16:32.833Z,25.89
2023-02-25T16:17:32.836Z,25.89
2023-02-25T16:18:32.807Z,25.89
2023-02-25T16:19:32.812Z,25.89
2023-02-25T16:20:32.786Z,25.87
2023-02-25T16:21:32.827Z,25.88
2023-02-25T16:22:32.756Z,25.89
2023-02-25T16:23:32.754Z,25.88
2023-02-25T16:24:32.842Z,25.91
2023-02-25T16:25:32.807Z,25.89
2023-02-25T16:26:32.764Z,25.89
2023-02-25T16:27:33.412Z,25.89
2023-02-25T16:28:32.745Z,25.91
2023-02-25T16:29:32.741Z,25.88
2023-02-25T16:30:32.750Z,25.88
2023-02-25T16:31:32.743Z,25.88
2023-02-25T16:32:32.766Z,25.89
2023-02-25T16:33:32.715Z,25.88
2023-02-25T16:34:32.719Z,25.89
2023-02-25T16:35:32.729Z,25.89
2023-02-25T16:36:32.731Z,25.88
2023-02-25T16:37:32.703Z,25.91
2023-02-25T16:38:32.789Z,25.87
2023-02-25T17:35:33.602Z,25.89
2023-02-25T17:43:33.708Z,25.85
2023-02-25T17:44:33.705Z,25.85
2023-02-25T17:45:33.654Z,25.85
2023-02-25T17:46:33.757Z,25.85
2023-02-25T17:47:33.760Z,25.87
2023-02-25T17:48:33.733Z,25.84
2023-02-25T17:49:33.781Z,25.87
2023-02-25T17:50:33.749Z,25.88
2023-02-25T17:51:33.887Z,25.85
2023-02-25T17:52:33.845Z,25.87
2023-02-25T17:53:33.869Z,25.85
2023-02-25T17:54:33.852Z,25.85
2023-02-25T17:55:33.844Z,25.87
2023-02-25T17:56:33.835Z,25.84
2023-02-25T17:57:33.853Z,25.87
2023-02-25T17:58:33.937Z,25.87
2023-02-25T17:59:33.969Z,25.88
2023-02-25T18:00:33.956Z,25.87
2023-02-25T18:01:34.002Z,25.84
2023-02-25T18:02:34.023Z,25.87
2023-02-25T18:03:34.008Z,25.85
2023-02-25T18:04:34.076Z,25.85
2023-02-25T18:05:34.050Z,25.84
2023-02-25T18:06:34.043Z,25.85
2023-02-25T18:07:34.067Z,25.83
2023-02-25T18:08:34.064Z,25.84
2023-02-25T18:09:34.064Z,25.88
2023-02-25T18:10:34.129Z,25.87
2023-02-25T18:11:34.220Z,25.85
2023-02-25T18:12:34.217Z,25.88
2023-02-25T18:13:34.272Z,25.84
2023-02-25T18:14:34.236Z,25.85
2023-02-25T18:15:34.269Z,25.81
2023-02-25T18:16:34.256Z,25.83
2023-02-25T18:17:34.298Z,25.85
2023-02-25T18:18:34.375Z,25.81
2023-02-25T18:19:34.503Z,25.84
2023-02-25T20:02:36.434Z,25.84
2023-02-25T20:04:36.483Z,25.84
2023-02-25T20:05:36.521Z,25.84
2023-02-25T20:06:36.605Z,25.84
2023-02-25T20:07:36.637Z,25.84
2023-02-25T20:08:36.639Z,25.87
2023-02-25T20:09:36.653Z,25.87
2023-02-25T20:10:36.698Z,25.84
2023-02-25T20:11:36.736Z,25.85
2023-02-25T20:12:36.669Z,25.83
2023-02-25T20:13:36.665Z,25.84
2023-02-25T20:14:36.671Z,25.84
2023-02-25T20:15:36.698Z,25.85
2023-02-25T20:16:36.828Z,25.83
2023-02-25T20:17:36.841Z,25.85
2023-02-25T20:18:36.829Z,25.87
2023-02-25T20:19:36.825Z,25.81
2023-02-25T20:20:36.840Z,25.84
2023-02-25T20:21:36.852Z,25.84
2023-02-25T20:22:36.914Z,25.84
2023-02-25T20:23:38.955Z,25.84
2023-02-25T20:24:37.006Z,25.84
2023-02-25T20:25:36.964Z,25.83
2023-02-25T20:26:36.977Z,25.85
2023-02-25T20:27:37.164Z,25.85
2023-02-25T20:28:37.008Z,25.83
2023-02-25T20:29:36.982Z,25.83
2023-02-25T20:30:37.030Z,25.85
2023-02-25T20:31:36.990Z,25.84
2023-02-25T20:32:37.009Z,25.83
2023-02-25T20:33:36.988Z,25.83
2023-02-25T20:34:36.921Z,25.84
2023-02-25T20:35:36.929Z,25.81
2023-02-25T20:36:36.958Z,25.83
2023-02-25T20:37:36.921Z,25.84
2023-02-25T20:38:36.917Z,25.81
2023-02-25T20:39:36.943Z,25.83
2023-02-25T20:40:36.930Z,25.83
2023-02-25T20:41:36.913Z,25.81
2023-02-25T20:42:36.885Z,25.81
2023-02-25T20:43:36.886Z,25.81
2023-02-25T20:44:36.924Z,25.80
2023-02-25T20:45:36.878Z,25.83
2023-02-25T20:46:36.830Z,25.80
2023-02-25T20:47:36.869Z,25.81
2023-02-25T20:54:36.820Z,25.81
2023-02-25T20:55:36.821Z,25.83
2023-02-25T20:56:36.818Z,25.80
2023-02-25T20:57:36.784Z,25.83
2023-02-25T20:58:36.775Z,25.81
2023-02-25T20:59:36.787Z,25.78
2023-02-25T21:00:36.746Z,25.84
2023-02-25T21:01:36.752Z,25.80
2023-02-25T21:02:36.730Z,25.81
2023-02-25T21:03:36.749Z,25.83
2023-02-25T21:04:36.737Z,25.80
2023-02-25T21:05:36.714Z,25.81
2023-02-25T21:06:36.704Z,25.85
2023-02-25T21:07:36.717Z,25.81
2023-02-25T21:08:36.684Z,25.78
2023-02-25T21:09:36.704Z,25.84
2023-02-25T21:10:36.722Z,25.80
2023-02-25T21:11:36.855Z,25.81
2023-02-25T21:12:36.706Z,25.81
2023-02-25T21:14:36.689Z,25.80
2023-02-25T21:16:36.684Z,25.83
2023-02-25T21:17:36.666Z,25.81
2023-02-25T21:18:36.645Z,25.80
2023-02-25T21:19:36.647Z,25.80
2023-02-25T21:20:36.620Z,25.83
2023-02-25T21:21:36.635Z,25.81
2023-02-25T21:22:36.586Z,25.83
2023-02-25T21:23:36.603Z,25.78
2023-02-25T21:24:36.597Z,25.81
2023-02-25T21:25:36.555Z,25.81
2023-02-25T21:26:36.559Z,25.80
2023-02-25T21:27:36.573Z,25.80
2023-02-25T21:28:36.553Z,25.80
2023-02-25T21:29:36.579Z,25.81
2023-02-25T21:30:36.621Z,25.78
2023-02-25T21:31:36.602Z,25.81
2023-02-25T21:32:36.517Z,25.78
2023-02-25T21:33:36.564Z,25.78
2023-02-25T21:34:36.546Z,25.80
2023-02-25T21:35:36.521Z,25.80
2023-02-25T21:36:36.532Z,25.78
2023-02-25T21:37:36.510Z,25.80
2023-02-25T21:38:36.532Z,25.80
2023-02-25T21:39:36.504Z,25.81
2023-02-25T21:40:36.488Z,25.77
2023-02-25T21:41:36.500Z,25.78
2023-02-25T21:42:36.478Z,25.78
2023-02-25T21:43:36.462Z,25.81
2023-02-25T21:46:36.557Z,25.80
2023-02-25T21:47:36.431Z,25.80
2023-02-25T21:48:36.436Z,25.80
2023-02-25T21:49:36.398Z,25.80
2023-02-25T21:50:36.414Z,25.78
2023-02-25T21:51:36.427Z,25.78
2023-02-25T21:52:36.407Z,25.78
2023-02-25T21:53:36.403Z,25.80
2023-02-25T21:54:36.398Z,25.80
2023-02-25T21:55:36.389Z,25.77
2023-02-25T21:56:36.405Z,25.75
2023-02-25T21:57:36.382Z,25.78
2023-02-25T21:58:36.412Z,25.78
2023-02-25T21:59:36.417Z,25.77
2023-02-25T22:00:36.429Z,25.80
2023-02-25T22:01:36.464Z,25.78
2023-02-25T22:02:36.456Z,25.78
2023-02-25T22:03:36.482Z,25.78
2023-02-25T22:04:36.486Z,25.75
2023-02-25T22:05:36.482Z,25.77
2023-02-25T22:06:36.489Z,25.78
2023-02-25T22:07:36.478Z,25.75
2023-02-25T22:08:36.568Z,25.77
2023-02-25T22:09:36.571Z,25.78
2023-02-25T22:10:36.542Z,25.80
2023-02-25T22:11:36.592Z,25.78
2023-02-25T22:12:36.600Z,25.78
2023-02-25T22:13:36.631Z,25.75
2023-02-25T22:14:36.664Z,25.77
2023-02-25T22:15:36.688Z,25.77
2023-02-25T22:16:36.626Z,25.78
2023-02-25T22:17:36.648Z,25.77
2023-02-25T22:18:36.669Z,25.78
2023-02-25T22:19:36.687Z,25.75
2023-02-25T22:20:36.754Z,25.78
2023-02-25T22:21:36.892Z,25.75